Airfield :
LOGIN :

Register | Disclaimer

   EN    FR    IT 

 










Legend :    VFR   Marginal VFR   IFR   Intensive IFR   Very Intensive IFR
Visi :
Ceiling :
>= 8 km
>= 3000ft
5 to 8 km
1000 to 3000 ft
1500m to 5 km
500 to 1000 ft
800 to 1500m
200 to 500 ft
< 800m
< 200 ft
Symbols :   Thunderstorms  Fog  Heavy snow  Heavy precipitations  Wind > 20 kt
SIGMETs :     Misc.  Thunderstorms  Icing  Turbulence  Mountain Waves  Volcanic Ashes






- Airport Elevation : 485 ft
- IATA code : QSA


LELL - Sabadell

CURRENT METAR :
  • 070730Z 24005KT 180V290 9999 FEW070 24/16 Q1021

EXPIRED METARs :
  • 070700Z 29004KT 230V360 9999 FEW070 24/17 Q1021
  • 070630Z 32005KT 280V350 9999 VCFG FEW010 SCT070 23/17 Q1021
  • 070600Z 29004KT 270V330 9999 VCFG FEW010 22/16 Q1021
  • 070530Z AUTO 27004KT 240V300 CAVOK 20/17 Q1021
  • 070500Z AUTO 25004KT 210V290 CAVOK 20/16 Q1021
  • 070430Z AUTO 25003KT 230V290 CAVOK 20/16 Q1021

TAF TAF LELL
Valid from the 07 at 03:00 until the 08 at 03:00 UTC


070200Z 0703/0803 28006KT CAVOK TX32/0713Z TN18/0705Z
BECMG 0710/0712 18012KT
BECMG 0718/0720 VRB04KT



MET'MAP, your aeronautical weather chart ! - Copyright ORBIFLY December 2007 - Disclaimer

ORBIFLY MET'MAP TEAM :

Programming & Development : Alexandra Zaïnal
Original concept : Baudouin d'Aumeries
Technical & hardware support : Manuel Goepfert
Assistance : Marc-Olivier Méhu




SOURCES & CREDITS :

   NOAA